KANW/ANW METAR and TAF weather

Enter ICAO airport designator
Station Type Date Time Source
KANW METAR 2020/10/20 17:55 UTC NOAA

KANW 201755Z AUTO 29016G20KT 10SM SCT026 SCT120 10/03 A2991 RMK AO2 T00950028 10095 20044


Station Type Date Time Source
KANW Decoded METAR 2020/10/20 17:55 UTC NOAA

Ainsworth Municipal, NE, United States (KANW) 42-35N 100-00W
Oct 20, 2020 - 01:55 PM EDT / 2020.10.20 1755 UTC
Wind: from the WNW (290 degrees) at 18 MPH (16 KT) gusting to 23 MPH (20 KT):0
Visibility: 10 mile(s):0
Sky conditions: partly cloudy
Temperature: 49.1 F (9.5 C)
Dew Point: 37.0 F (2.8 C)
Relative Humidity: 62%
Pressure (altimeter): 29.91 in. Hg (1012 hPa)
ob: KANW 201755Z AUTO 29016G20KT 10SM SCT026 SCT120 10/03 A2991 RMK AO2 T00950028 10095 20044
cycle: 18

Station Type Date Time Source
KANW TAF UTC NOAA

Error!

Example: see airport list